sensor_id;sensor_type;location;lat;lon;timestamp;P1;durP1;ratioP1;P2;durP2;ratioP2
67100;SDS011;54019;61.746;16.106;2023-04-06T00:00:49;0.30;;;0.30;;
67100;SDS011;54019;61.746;16.106;2023-04-06T00:03:15;0.95;;;0.32;;
67100;SDS011;54019;61.746;16.106;2023-04-06T00:05:42;1.83;;;0.35;;
67100;SDS011;54019;61.746;16.106;2023-04-06T00:08:08;0.90;;;0.25;;
67100;SDS011;54019;61.746;16.106;2023-04-06T00:10:34;0.35;;;0.35;;
67100;SDS011;54019;61.746;16.106;2023-04-06T00:12:59;1.35;;;0.80;;
67100;SDS011;54019;61.746;16.106;2023-04-06T00:15:25;1.52;;;0.70;;
67100;SDS011;54019;61.746;16.106;2023-04-06T00:17:51;0.82;;;0.63;;
67100;SDS011;54019;61.746;16.106;2023-04-06T00:20:17;1.10;;;0.40;;
67100;SDS011;54019;61.746;16.106;2023-04-06T00:22:45;1.13;;;0.30;;
67100;SDS011;54019;61.746;16.106;2023-04-06T00:25:10;0.35;;;0.35;;
67100;SDS011;54019;61.746;16.106;2023-04-06T00:27:36;0.52;;;0.30;;
67100;SDS011;54019;61.746;16.106;2023-04-06T00:30:02;0.55;;;0.38;;
67100;SDS011;54019;61.746;16.106;2023-04-06T00:32:28;0.30;;;0.20;;
67100;SDS011;54019;61.746;16.106;2023-04-06T00:34:54;0.90;;;0.45;;
67100;SDS011;54019;61.746;16.106;2023-04-06T00:37:20;1.25;;;0.40;;
67100;SDS011;54019;61.746;16.106;2023-04-06T00:39:47;0.57;;;0.30;;
67100;SDS011;54019;61.746;16.106;2023-04-06T00:42:13;0.70;;;0.40;;
67100;SDS011;54019;61.746;16.106;2023-04-06T00:44:39;1.90;;;0.40;;
67100;SDS011;54019;61.746;16.106;2023-04-06T00:47:05;0.63;;;0.30;;
67100;SDS011;54019;61.746;16.106;2023-04-06T00:49:31;1.55;;;0.40;;
67100;SDS011;54019;61.746;16.106;2023-04-06T00:51:57;1.10;;;0.20;;
67100;SDS011;54019;61.746;16.106;2023-04-06T00:54:23;0.60;;;0.30;;
67100;SDS011;54019;61.746;16.106;2023-04-06T00:56:50;0.20;;;0.20;;
67100;SDS011;54019;61.746;16.106;2023-04-06T00:59:16;3.50;;;0.30;;
67100;SDS011;54019;61.746;16.106;2023-04-06T01:01:42;0.80;;;0.45;;
67100;SDS011;54019;61.746;16.106;2023-04-06T01:04:08;3.33;;;0.50;;
67100;SDS011;54019;61.746;16.106;2023-04-06T01:06:33;0.70;;;0.30;;
67100;SDS011;54019;61.746;16.106;2023-04-06T01:08:59;1.63;;;0.30;;
67100;SDS011;54019;61.746;16.106;2023-04-06T01:11:25;2.65;;;0.40;;
67100;SDS011;54019;61.746;16.106;2023-04-06T01:13:53;1.38;;;0.22;;
67100;SDS011;54019;61.746;16.106;2023-04-06T01:16:19;0.75;;;0.30;;
67100;SDS011;54019;61.746;16.106;2023-04-06T01:18:44;0.47;;;0.30;;
67100;SDS011;54019;61.746;16.106;2023-04-06T01:21:10;1.38;;;0.30;;
67100;SDS011;54019;61.746;16.106;2023-04-06T01:23:37;0.75;;;0.25;;
67100;SDS011;54019;61.746;16.106;2023-04-06T01:26:03;1.05;;;0.30;;
67100;SDS011;54019;61.746;16.106;2023-04-06T01:28:29;0.68;;;0.20;;
67100;SDS011;54019;61.746;16.106;2023-04-06T01:30:55;0.47;;;0.30;;
67100;SDS011;54019;61.746;16.106;2023-04-06T01:33:20;0.85;;;0.32;;
67100;SDS011;54019;61.746;16.106;2023-04-06T01:35:46;0.57;;;0.25;;
67100;SDS011;54019;61.746;16.106;2023-04-06T01:38:12;0.25;;;0.25;;
67100;SDS011;54019;61.746;16.106;2023-04-06T01:40:39;1.83;;;0.40;;
67100;SDS011;54019;61.746;16.106;2023-04-06T01:43:05;0.35;;;0.30;;
67100;SDS011;54019;61.746;16.106;2023-04-06T01:45:31;0.98;;;0.30;;
67100;SDS011;54019;61.746;16.106;2023-04-06T01:47:56;0.50;;;0.30;;
67100;SDS011;54019;61.746;16.106;2023-04-06T01:50:22;0.45;;;0.30;;
67100;SDS011;54019;61.746;16.106;2023-04-06T01:52:48;0.45;;;0.30;;
67100;SDS011;54019;61.746;16.106;2023-04-06T01:55:14;0.20;;;0.20;;
67100;SDS011;54019;61.746;16.106;2023-04-06T01:57:41;0.75;;;0.35;;
67100;SDS011;54019;61.746;16.106;2023-04-06T02:00:07;0.55;;;0.30;;
67100;SDS011;54019;61.746;16.106;2023-04-06T02:02:33;1.67;;;0.50;;
67100;SDS011;54019;61.746;16.106;2023-04-06T02:04:59;1.15;;;0.30;;
67100;SDS011;54019;61.746;16.106;2023-04-06T02:07:25;0.70;;;0.30;;
67100;SDS011;54019;61.746;16.106;2023-04-06T02:09:53;1.40;;;0.30;;
67100;SDS011;54019;61.746;16.106;2023-04-06T02:12:19;2.58;;;0.50;;
67100;SDS011;54019;61.746;16.106;2023-04-06T02:14:46;0.57;;;0.38;;
67100;SDS011;54019;61.746;16.106;2023-04-06T02:17:12;0.25;;;0.25;;
67100;SDS011;54019;61.746;16.106;2023-04-06T02:19:38;0.93;;;0.38;;
67100;SDS011;54019;61.746;16.106;2023-04-06T02:22:04;0.68;;;0.20;;
67100;SDS011;54019;61.746;16.106;2023-04-06T02:24:29;0.98;;;0.40;;
67100;SDS011;54019;61.746;16.106;2023-04-06T02:26:55;0.40;;;0.25;;
67100;SDS011;54019;61.746;16.106;2023-04-06T02:29:21;0.30;;;0.30;;
67100;SDS011;54019;61.746;16.106;2023-04-06T02:31:48;1.65;;;0.30;;
67100;SDS011;54019;61.746;16.106;2023-04-06T02:34:14;1.73;;;0.45;;
67100;SDS011;54019;61.746;16.106;2023-04-06T02:36:40;0.88;;;0.40;;
67100;SDS011;54019;61.746;16.106;2023-04-06T02:39:05;3.83;;;0.45;;
67100;SDS011;54019;61.746;16.106;2023-04-06T02:41:31;0.82;;;0.30;;
67100;SDS011;54019;61.746;16.106;2023-04-06T02:43:57;0.17;;;0.17;;
67100;SDS011;54019;61.746;16.106;2023-04-06T02:46:23;0.30;;;0.30;;
67100;SDS011;54019;61.746;16.106;2023-04-06T02:48:50;0.88;;;0.30;;
67100;SDS011;54019;61.746;16.106;2023-04-06T02:51:15;1.77;;;0.20;;
67100;SDS011;54019;61.746;16.106;2023-04-06T02:53:41;0.43;;;0.30;;
67100;SDS011;54019;61.746;16.106;2023-04-06T02:56:07;1.85;;;0.20;;
67100;SDS011;54019;61.746;16.106;2023-04-06T02:58:33;2.13;;;0.30;;
67100;SDS011;54019;61.746;16.106;2023-04-06T03:00:58;0.57;;;0.30;;
67100;SDS011;54019;61.746;16.106;2023-04-06T03:03:24;0.68;;;0.40;;
67100;SDS011;54019;61.746;16.106;2023-04-06T03:05:51;0.35;;;0.35;;
67100;SDS011;54019;61.746;16.106;2023-04-06T03:08:17;2.42;;;0.30;;
67100;SDS011;54019;61.746;16.106;2023-04-06T03:10:43;0.73;;;0.20;;
67100;SDS011;54019;61.746;16.106;2023-04-06T03:13:08;0.28;;;0.25;;
67100;SDS011;54019;61.746;16.106;2023-04-06T03:15:34;0.35;;;0.30;;
67100;SDS011;54019;61.746;16.106;2023-04-06T03:18:00;0.30;;;0.30;;
67100;SDS011;54019;61.746;16.106;2023-04-06T03:20:26;0.75;;;0.28;;
67100;SDS011;54019;61.746;16.106;2023-04-06T03:22:53;0.80;;;0.20;;
67100;SDS011;54019;61.746;16.106;2023-04-06T03:25:19;0.40;;;0.20;;
67100;SDS011;54019;61.746;16.106;2023-04-06T03:27:44;0.70;;;0.30;;
67100;SDS011;54019;61.746;16.106;2023-04-06T03:30:10;0.47;;;0.30;;
67100;SDS011;54019;61.746;16.106;2023-04-06T03:32:36;1.23;;;0.28;;
67100;SDS011;54019;61.746;16.106;2023-04-06T03:35:02;2.55;;;0.38;;
67100;SDS011;54019;61.746;16.106;2023-04-06T03:37:28;0.57;;;0.40;;
67100;SDS011;54019;61.746;16.106;2023-04-06T03:39:56;0.38;;;0.38;;
67100;SDS011;54019;61.746;16.106;2023-04-06T03:42:21;1.25;;;0.25;;
67100;SDS011;54019;61.746;16.106;2023-04-06T03:44:47;0.95;;;0.40;;
67100;SDS011;54019;61.746;16.106;2023-04-06T03:47:13;0.85;;;0.40;;
67100;SDS011;54019;61.746;16.106;2023-04-06T03:49:39;0.95;;;0.50;;
67100;SDS011;54019;61.746;16.106;2023-04-06T03:52:05;0.93;;;0.40;;
67100;SDS011;54019;61.746;16.106;2023-04-06T03:54:30;2.53;;;0.43;;
67100;SDS011;54019;61.746;16.106;2023-04-06T03:56:58;2.05;;;0.30;;
67100;SDS011;54019;61.746;16.106;2023-04-06T03:59:23;1.23;;;0.20;;
67100;SDS011;54019;61.746;16.106;2023-04-06T04:01:49;0.45;;;0.30;;
67100;SDS011;54019;61.746;16.106;2023-04-06T04:04:15;2.55;;;0.32;;
67100;SDS011;54019;61.746;16.106;2023-04-06T04:06:40;0.52;;;0.20;;
67100;SDS011;54019;61.746;16.106;2023-04-06T04:09:06;1.13;;;0.40;;
67100;SDS011;54019;61.746;16.106;2023-04-06T04:11:32;2.20;;;0.30;;
67100;SDS011;54019;61.746;16.106;2023-04-06T04:13:59;1.75;;;0.30;;
67100;SDS011;54019;61.746;16.106;2023-04-06T04:16:25;0.35;;;0.20;;
67100;SDS011;54019;61.746;16.106;2023-04-06T04:18:51;1.75;;;0.43;;
67100;SDS011;54019;61.746;16.106;2023-04-06T04:21:16;0.35;;;0.30;;
67100;SDS011;54019;61.746;16.106;2023-04-06T04:23:42;0.50;;;0.30;;
67100;SDS011;54019;61.746;16.106;2023-04-06T04:26:08;2.22;;;0.40;;
67100;SDS011;54019;61.746;16.106;2023-04-06T04:28:34;0.60;;;0.32;;
67100;SDS011;54019;61.746;16.106;2023-04-06T04:31:01;0.75;;;0.40;;
67100;SDS011;54019;61.746;16.106;2023-04-06T04:33:27;2.20;;;0.50;;
67100;SDS011;54019;61.746;16.106;2023-04-06T04:35:53;0.60;;;0.25;;
67100;SDS011;54019;61.746;16.106;2023-04-06T04:38:18;1.05;;;0.25;;
67100;SDS011;54019;61.746;16.106;2023-04-06T04:40:44;0.30;;;0.30;;
67100;SDS011;54019;61.746;16.106;2023-04-06T04:43:10;0.35;;;0.30;;
67100;SDS011;54019;61.746;16.106;2023-04-06T04:45:39;0.73;;;0.30;;
67100;SDS011;54019;61.746;16.106;2023-04-06T04:48:06;0.80;;;0.30;;
67100;SDS011;54019;61.746;16.106;2023-04-06T04:50:32;0.40;;;0.20;;
67100;SDS011;54019;61.746;16.106;2023-04-06T04:52:58;1.48;;;0.40;;
67100;SDS011;54019;61.746;16.106;2023-04-06T04:55:23;0.85;;;0.30;;
67100;SDS011;54019;61.746;16.106;2023-04-06T04:57:49;1.45;;;0.57;;
67100;SDS011;54019;61.746;16.106;2023-04-06T05:00:15;0.93;;;0.40;;
67100;SDS011;54019;61.746;16.106;2023-04-06T05:02:41;0.90;;;0.30;;
67100;SDS011;54019;61.746;16.106;2023-04-06T05:05:09;1.95;;;0.50;;
67100;SDS011;54019;61.746;16.106;2023-04-06T05:07:34;3.60;;;0.40;;
67100;SDS011;54019;61.746;16.106;2023-04-06T05:10:00;1.10;;;0.40;;
67100;SDS011;54019;61.746;16.106;2023-04-06T05:12:26;0.95;;;0.77;;
67100;SDS011;54019;61.746;16.106;2023-04-06T05:14:52;2.30;;;0.55;;
67100;SDS011;54019;61.746;16.106;2023-04-06T05:17:18;2.78;;;0.40;;
67100;SDS011;54019;61.746;16.106;2023-04-06T05:19:44;1.88;;;0.38;;
67100;SDS011;54019;61.746;16.106;2023-04-06T05:22:11;1.13;;;0.40;;
67100;SDS011;54019;61.746;16.106;2023-04-06T05:24:37;0.63;;;0.30;;
67100;SDS011;54019;61.746;16.106;2023-04-06T05:27:03;4.00;;;0.57;;
67100;SDS011;54019;61.746;16.106;2023-04-06T05:29:29;2.35;;;0.32;;
67100;SDS011;54019;61.746;16.106;2023-04-06T05:31:55;6.10;;;0.50;;
67100;SDS011;54019;61.746;16.106;2023-04-06T05:34:21;1.40;;;0.30;;
67100;SDS011;54019;61.746;16.106;2023-04-06T05:36:47;0.65;;;0.43;;
67100;SDS011;54019;61.746;16.106;2023-04-06T05:39:14;1.13;;;0.20;;
67100;SDS011;54019;61.746;16.106;2023-04-06T05:41:40;1.27;;;0.40;;
67100;SDS011;54019;61.746;16.106;2023-04-06T05:44:06;1.85;;;0.40;;
67100;SDS011;54019;61.746;16.106;2023-04-06T05:46:31;0.75;;;0.45;;
67100;SDS011;54019;61.746;16.106;2023-04-06T05:48:57;1.27;;;0.57;;
67100;SDS011;54019;61.746;16.106;2023-04-06T05:51:23;0.32;;;0.30;;
67100;SDS011;54019;61.746;16.106;2023-04-06T05:53:49;1.35;;;0.43;;
67100;SDS011;54019;61.746;16.106;2023-04-06T05:56:16;0.25;;;0.25;;
67100;SDS011;54019;61.746;16.106;2023-04-06T05:58:41;1.77;;;0.47;;
67100;SDS011;54019;61.746;16.106;2023-04-06T06:01:07;1.13;;;0.40;;
67100;SDS011;54019;61.746;16.106;2023-04-06T06:03:33;1.73;;;0.40;;
67100;SDS011;54019;61.746;16.106;2023-04-06T06:05:59;1.60;;;0.50;;
67100;SDS011;54019;61.746;16.106;2023-04-06T06:08:25;0.73;;;0.30;;
67100;SDS011;54019;61.746;16.106;2023-04-06T06:10:51;0.40;;;0.38;;
67100;SDS011;54019;61.746;16.106;2023-04-06T06:13:18;2.25;;;0.60;;
67100;SDS011;54019;61.746;16.106;2023-04-06T06:15:44;0.50;;;0.38;;
67100;SDS011;54019;61.746;16.106;2023-04-06T06:18:09;0.30;;;0.30;;
67100;SDS011;54019;61.746;16.106;2023-04-06T06:20:35;4.60;;;0.50;;
67100;SDS011;54019;61.746;16.106;2023-04-06T06:23:01;3.50;;;0.70;;
67100;SDS011;54019;61.746;16.106;2023-04-06T06:25:27;3.42;;;0.60;;
67100;SDS011;54019;61.746;16.106;2023-04-06T06:27:52;3.47;;;0.52;;
67100;SDS011;54019;61.746;16.106;2023-04-06T06:30:20;1.33;;;0.60;;
67100;SDS011;54019;61.746;16.106;2023-04-06T06:32:45;1.50;;;0.60;;
67100;SDS011;54019;61.746;16.106;2023-04-06T06:35:11;1.35;;;0.63;;
67100;SDS011;54019;61.746;16.106;2023-04-06T06:37:37;3.40;;;0.60;;
67100;SDS011;54019;61.746;16.106;2023-04-06T06:40:03;0.98;;;0.50;;
67100;SDS011;54019;61.746;16.106;2023-04-06T06:42:29;1.00;;;0.70;;
67100;SDS011;54019;61.746;16.106;2023-04-06T06:44:55;2.38;;;0.50;;
67100;SDS011;54019;61.746;16.106;2023-04-06T06:47:22;7.75;;;0.73;;
67100;SDS011;54019;61.746;16.106;2023-04-06T06:49:48;4.05;;;0.50;;
67100;SDS011;54019;61.746;16.106;2023-04-06T06:52:14;2.13;;;0.57;;
67100;SDS011;54019;61.746;16.106;2023-04-06T06:54:40;2.03;;;0.50;;
67100;SDS011;54019;61.746;16.106;2023-04-06T06:57:05;2.25;;;0.50;;
67100;SDS011;54019;61.746;16.106;2023-04-06T06:59:31;1.67;;;0.50;;
67100;SDS011;54019;61.746;16.106;2023-04-06T07:01:57;0.75;;;0.60;;
67100;SDS011;54019;61.746;16.106;2023-04-06T07:04:24;1.27;;;0.60;;
67100;SDS011;54019;61.746;16.106;2023-04-06T07:06:50;0.82;;;0.57;;
67100;SDS011;54019;61.746;16.106;2023-04-06T07:09:16;0.70;;;0.60;;
67100;SDS011;54019;61.746;16.106;2023-04-06T07:11:41;0.82;;;0.50;;
67100;SDS011;54019;61.746;16.106;2023-04-06T07:14:07;0.85;;;0.47;;
67100;SDS011;54019;61.746;16.106;2023-04-06T07:16:33;0.77;;;0.60;;
67100;SDS011;54019;61.746;16.106;2023-04-06T07:18:59;0.68;;;0.65;;
67100;SDS011;54019;61.746;16.106;2023-04-06T07:21:26;0.50;;;0.50;;
67100;SDS011;54019;61.746;16.106;2023-04-06T07:23:51;1.35;;;0.60;;
67100;SDS011;54019;61.746;16.106;2023-04-06T07:26:17;1.33;;;0.80;;
67100;SDS011;54019;61.746;16.106;2023-04-06T07:28:43;0.73;;;0.60;;
67100;SDS011;54019;61.746;16.106;2023-04-06T07:31:09;0.85;;;0.60;;
67100;SDS011;54019;61.746;16.106;2023-04-06T07:33:34;1.05;;;0.50;;
67100;SDS011;54019;61.746;16.106;2023-04-06T07:36:00;0.60;;;0.50;;
67100;SDS011;54019;61.746;16.106;2023-04-06T07:38:27;0.60;;;0.52;;
67100;SDS011;54019;61.746;16.106;2023-04-06T07:40:53;0.63;;;0.60;;
67100;SDS011;54019;61.746;16.106;2023-04-06T07:43:19;0.77;;;0.65;;
67100;SDS011;54019;61.746;16.106;2023-04-06T07:45:45;0.63;;;0.60;;
67100;SDS011;54019;61.746;16.106;2023-04-06T07:48:10;0.90;;;0.68;;
67100;SDS011;54019;61.746;16.106;2023-04-06T07:50:36;1.08;;;0.60;;
67100;SDS011;54019;61.746;16.106;2023-04-06T07:53:02;1.13;;;0.60;;
67100;SDS011;54019;61.746;16.106;2023-04-06T07:55:29;0.60;;;0.40;;
67100;SDS011;54019;61.746;16.106;2023-04-06T07:57:55;1.52;;;0.70;;
67100;SDS011;54019;61.746;16.106;2023-04-06T08:00:21;1.23;;;0.50;;
67100;SDS011;54019;61.746;16.106;2023-04-06T08:02:47;0.93;;;0.60;;
67100;SDS011;54019;61.746;16.106;2023-04-06T08:05:13;0.60;;;0.60;;
67100;SDS011;54019;61.746;16.106;2023-04-06T08:07:38;1.52;;;0.60;;
67100;SDS011;54019;61.746;16.106;2023-04-06T08:10:04;0.50;;;0.50;;
67100;SDS011;54019;61.746;16.106;2023-04-06T08:12:33;0.88;;;0.50;;
67100;SDS011;54019;61.746;16.106;2023-04-06T08:14:59;0.60;;;0.52;;
67100;SDS011;54019;61.746;16.106;2023-04-06T08:17:25;1.20;;;0.50;;
67100;SDS011;54019;61.746;16.106;2023-04-06T08:19:51;0.52;;;0.50;;
67100;SDS011;54019;61.746;16.106;2023-04-06T08:22:16;0.68;;;0.40;;
67100;SDS011;54019;61.746;16.106;2023-04-06T08:24:42;0.50;;;0.50;;
67100;SDS011;54019;61.746;16.106;2023-04-06T08:27:08;0.70;;;0.50;;
67100;SDS011;54019;61.746;16.106;2023-04-06T08:29:35;0.50;;;0.50;;
67100;SDS011;54019;61.746;16.106;2023-04-06T08:32:01;0.60;;;0.43;;
67100;SDS011;54019;61.746;16.106;2023-04-06T08:34:27;0.47;;;0.47;;
67100;SDS011;54019;61.746;16.106;2023-04-06T08:36:52;0.60;;;0.40;;
67100;SDS011;54019;61.746;16.106;2023-04-06T08:39:18;0.75;;;0.50;;
67100;SDS011;54019;61.746;16.106;2023-04-06T08:41:44;0.35;;;0.35;;
67100;SDS011;54019;61.746;16.106;2023-04-06T08:44:11;0.55;;;0.35;;
67100;SDS011;54019;61.746;16.106;2023-04-06T08:46:38;0.50;;;0.50;;
67100;SDS011;54019;61.746;16.106;2023-04-06T08:49:04;0.40;;;0.40;;
67100;SDS011;54019;61.746;16.106;2023-04-06T08:51:30;0.68;;;0.50;;
67100;SDS011;54019;61.746;16.106;2023-04-06T08:53:56;0.60;;;0.40;;
67100;SDS011;54019;61.746;16.106;2023-04-06T08:56:23;0.57;;;0.40;;
67100;SDS011;54019;61.746;16.106;2023-04-06T08:58:50;0.47;;;0.40;;
67100;SDS011;54019;61.746;16.106;2023-04-06T09:01:17;0.43;;;0.40;;
67100;SDS011;54019;61.746;16.106;2023-04-06T09:03:48;0.40;;;0.40;;
67100;SDS011;54019;61.746;16.106;2023-04-06T09:06:14;0.40;;;0.40;;
67100;SDS011;54019;61.746;16.106;2023-04-06T09:08:40;0.70;;;0.45;;
67100;SDS011;54019;61.746;16.106;2023-04-06T09:11:06;0.40;;;0.40;;
67100;SDS011;54019;61.746;16.106;2023-04-06T09:13:44;0.45;;;0.30;;
67100;SDS011;54019;61.746;16.106;2023-04-06T09:16:10;0.35;;;0.35;;
67100;SDS011;54019;61.746;16.106;2023-04-06T09:18:36;0.30;;;0.30;;
67100;SDS011;54019;61.746;16.106;2023-04-06T09:21:04;0.40;;;0.40;;
67100;SDS011;54019;61.746;16.106;2023-04-06T09:23:31;0.40;;;0.40;;
67100;SDS011;54019;61.746;16.106;2023-04-06T09:26:04;1.10;;;0.47;;
67100;SDS011;54019;61.746;16.106;2023-04-06T09:28:44;0.50;;;0.32;;
67100;SDS011;54019;61.746;16.106;2023-04-06T09:31:10;0.30;;;0.30;;
67100;SDS011;54019;61.746;16.106;2023-04-06T09:33:37;0.30;;;0.30;;
67100;SDS011;54019;61.746;16.106;2023-04-06T09:36:05;0.30;;;0.30;;
67100;SDS011;54019;61.746;16.106;2023-04-06T09:38:31;0.30;;;0.30;;
67100;SDS011;54019;61.746;16.106;2023-04-06T09:40:57;0.40;;;0.40;;
67100;SDS011;54019;61.746;16.106;2023-04-06T09:43:23;0.47;;;0.30;;
67100;SDS011;54019;61.746;16.106;2023-04-06T09:45:49;0.65;;;0.50;;
67100;SDS011;54019;61.746;16.106;2023-04-06T09:48:15;0.30;;;0.30;;
67100;SDS011;54019;61.746;16.106;2023-04-06T09:50:42;0.30;;;0.30;;
67100;SDS011;54019;61.746;16.106;2023-04-06T09:53:09;0.35;;;0.32;;
67100;SDS011;54019;61.746;16.106;2023-04-06T09:55:36;0.30;;;0.30;;
67100;SDS011;54019;61.746;16.106;2023-04-06T09:58:07;0.30;;;0.30;;
67100;SDS011;54019;61.746;16.106;2023-04-06T10:00:40;0.30;;;0.30;;
67100;SDS011;54019;61.746;16.106;2023-04-06T10:03:12;0.32;;;0.30;;
67100;SDS011;54019;61.746;16.106;2023-04-06T10:05:46;0.22;;;0.22;;
67100;SDS011;54019;61.746;16.106;2023-04-06T10:08:18;0.33;;;0.30;;
67100;SDS011;54019;61.746;16.106;2023-04-06T10:10:45;4.38;;;0.40;;
67100;SDS011;54019;61.746;16.106;2023-04-06T10:13:12;1.48;;;0.40;;
67100;SDS011;54019;61.746;16.106;2023-04-06T10:15:38;1.55;;;0.30;;
67100;SDS011;54019;61.746;16.106;2023-04-06T10:18:04;0.82;;;0.30;;
67100;SDS011;54019;61.746;16.106;2023-04-06T10:20:31;0.30;;;0.30;;
67100;SDS011;54019;61.746;16.106;2023-04-06T10:23:04;0.25;;;0.25;;
67100;SDS011;54019;61.746;16.106;2023-04-06T10:25:35;2.75;;;0.40;;
67100;SDS011;54019;61.746;16.106;2023-04-06T10:28:01;3.03;;;0.30;;
67100;SDS011;54019;61.746;16.106;2023-04-06T10:30:29;2.15;;;0.40;;
67100;SDS011;54019;61.746;16.106;2023-04-06T10:32:57;1.92;;;0.30;;
67100;SDS011;54019;61.746;16.106;2023-04-06T10:35:23;0.30;;;0.30;;
67100;SDS011;54019;61.746;16.106;2023-04-06T10:38:00;0.30;;;0.30;;
67100;SDS011;54019;61.746;16.106;2023-04-06T10:40:27;0.30;;;0.30;;
67100;SDS011;54019;61.746;16.106;2023-04-06T10:42:55;0.52;;;0.30;;
67100;SDS011;54019;61.746;16.106;2023-04-06T10:45:31;0.82;;;0.40;;
67100;SDS011;54019;61.746;16.106;2023-04-06T10:47:57;0.73;;;0.28;;
67100;SDS011;54019;61.746;16.106;2023-04-06T10:50:23;2.85;;;0.30;;
67100;SDS011;54019;61.746;16.106;2023-04-06T10:52:58;1.35;;;0.22;;
67100;SDS011;54019;61.746;16.106;2023-04-06T10:55:25;3.92;;;0.32;;
67100;SDS011;54019;61.746;16.106;2023-04-06T10:57:51;3.25;;;0.43;;
67100;SDS011;54019;61.746;16.106;2023-04-06T11:00:19;1.10;;;0.40;;
67100;SDS011;54019;61.746;16.106;2023-04-06T11:02:45;2.03;;;0.20;;
67100;SDS011;54019;61.746;16.106;2023-04-06T11:05:11;0.90;;;0.32;;
67100;SDS011;54019;61.746;16.106;2023-04-06T11:07:37;3.35;;;0.25;;
67100;SDS011;54019;61.746;16.106;2023-04-06T11:10:04;5.20;;;0.70;;
67100;SDS011;54019;61.746;16.106;2023-04-06T11:12:31;9.00;;;1.50;;
67100;SDS011;54019;61.746;16.106;2023-04-06T11:14:57;9.68;;;1.20;;
67100;SDS011;54019;61.746;16.106;2023-04-06T11:17:29;6.82;;;1.15;;
67100;SDS011;54019;61.746;16.106;2023-04-06T11:19:55;6.57;;;0.70;;
67100;SDS011;54019;61.746;16.106;2023-04-06T11:22:21;9.93;;;0.98;;
67100;SDS011;54019;61.746;16.106;2023-04-06T11:24:46;3.88;;;0.82;;
67100;SDS011;54019;61.746;16.106;2023-04-06T11:27:12;6.25;;;0.90;;
67100;SDS011;54019;61.746;16.106;2023-04-06T11:29:38;10.43;;;1.20;;
67100;SDS011;54019;61.746;16.106;2023-04-06T11:32:05;9.10;;;0.93;;
67100;SDS011;54019;61.746;16.106;2023-04-06T11:34:32;7.00;;;0.82;;
67100;SDS011;54019;61.746;16.106;2023-04-06T11:37:00;6.20;;;0.88;;
67100;SDS011;54019;61.746;16.106;2023-04-06T11:39:27;3.80;;;0.70;;
67100;SDS011;54019;61.746;16.106;2023-04-06T11:41:54;4.13;;;0.65;;
67100;SDS011;54019;61.746;16.106;2023-04-06T11:44:29;1.95;;;0.40;;
67100;SDS011;54019;61.746;16.106;2023-04-06T11:46:57;8.05;;;0.80;;
67100;SDS011;54019;61.746;16.106;2023-04-06T11:49:26;8.38;;;0.52;;
67100;SDS011;54019;61.746;16.106;2023-04-06T11:51:53;5.50;;;0.70;;
67100;SDS011;54019;61.746;16.106;2023-04-06T11:54:28;7.38;;;0.63;;
67100;SDS011;54019;61.746;16.106;2023-04-06T11:56:55;5.97;;;0.80;;
67100;SDS011;54019;61.746;16.106;2023-04-06T11:59:21;3.20;;;0.60;;
67100;SDS011;54019;61.746;16.106;2023-04-06T12:01:47;1.85;;;0.65;;
67100;SDS011;54019;61.746;16.106;2023-04-06T12:04:12;8.02;;;1.23;;
67100;SDS011;54019;61.746;16.106;2023-04-06T12:06:38;2.03;;;0.55;;
67100;SDS011;54019;61.746;16.106;2023-04-06T12:09:05;3.05;;;0.75;;
67100;SDS011;54019;61.746;16.106;2023-04-06T12:11:31;3.95;;;0.60;;
67100;SDS011;54019;61.746;16.106;2023-04-06T12:13:57;2.55;;;0.60;;
67100;SDS011;54019;61.746;16.106;2023-04-06T12:16:23;2.53;;;0.40;;
67100;SDS011;54019;61.746;16.106;2023-04-06T12:18:49;2.35;;;0.70;;
67100;SDS011;54019;61.746;16.106;2023-04-06T12:21:16;1.65;;;0.50;;
67100;SDS011;54019;61.746;16.106;2023-04-06T12:23:41;3.08;;;0.60;;
67100;SDS011;54019;61.746;16.106;2023-04-06T12:26:08;2.50;;;0.43;;
67100;SDS011;54019;61.746;16.106;2023-04-06T12:28:34;3.45;;;0.70;;
67100;SDS011;54019;61.746;16.106;2023-04-06T12:31:00;5.55;;;0.73;;
67100;SDS011;54019;61.746;16.106;2023-04-06T12:33:26;3.55;;;0.73;;
67100;SDS011;54019;61.746;16.106;2023-04-06T12:35:51;4.35;;;0.55;;
67100;SDS011;54019;61.746;16.106;2023-04-06T12:38:17;6.43;;;0.70;;
67100;SDS011;54019;61.746;16.106;2023-04-06T12:40:43;2.45;;;0.68;;
67100;SDS011;54019;61.746;16.106;2023-04-06T12:43:10;3.17;;;0.90;;
67100;SDS011;54019;61.746;16.106;2023-04-06T12:45:36;3.90;;;0.68;;
67100;SDS011;54019;61.746;16.106;2023-04-06T12:48:02;1.58;;;0.60;;
67100;SDS011;54019;61.746;16.106;2023-04-06T12:50:27;1.00;;;0.50;;
67100;SDS011;54019;61.746;16.106;2023-04-06T12:52:53;1.35;;;0.60;;
67100;SDS011;54019;61.746;16.106;2023-04-06T12:55:19;0.40;;;0.40;;
67100;SDS011;54019;61.746;16.106;2023-04-06T12:57:45;0.35;;;0.35;;
67100;SDS011;54019;61.746;16.106;2023-04-06T13:00:13;2.63;;;0.55;;
67100;SDS011;54019;61.746;16.106;2023-04-06T13:02:39;0.40;;;0.40;;
67100;SDS011;54019;61.746;16.106;2023-04-06T13:05:05;0.68;;;0.50;;
67100;SDS011;54019;61.746;16.106;2023-04-06T13:07:31;1.25;;;0.52;;
67100;SDS011;54019;61.746;16.106;2023-04-06T13:09:57;0.50;;;0.40;;
67100;SDS011;54019;61.746;16.106;2023-04-06T13:12:23;0.38;;;0.38;;
67100;SDS011;54019;61.746;16.106;2023-04-06T13:14:49;0.40;;;0.40;;
67100;SDS011;54019;61.746;16.106;2023-04-06T13:17:16;0.40;;;0.40;;
67100;SDS011;54019;61.746;16.106;2023-04-06T13:19:41;0.65;;;0.40;;
67100;SDS011;54019;61.746;16.106;2023-04-06T13:22:07;0.40;;;0.40;;
67100;SDS011;54019;61.746;16.106;2023-04-06T13:24:33;2.13;;;0.40;;
67100;SDS011;54019;61.746;16.106;2023-04-06T13:26:59;3.35;;;0.57;;
67100;SDS011;54019;61.746;16.106;2023-04-06T13:29:25;0.55;;;0.43;;
67100;SDS011;54019;61.746;16.106;2023-04-06T13:31:50;3.85;;;0.50;;
67100;SDS011;54019;61.746;16.106;2023-04-06T13:34:18;0.50;;;0.40;;
67100;SDS011;54019;61.746;16.106;2023-04-06T13:36:43;1.85;;;0.50;;
67100;SDS011;54019;61.746;16.106;2023-04-06T13:39:09;0.45;;;0.45;;
67100;SDS011;54019;61.746;16.106;2023-04-06T13:41:35;0.50;;;0.50;;
67100;SDS011;54019;61.746;16.106;2023-04-06T13:44:01;0.85;;;0.50;;
67100;SDS011;54019;61.746;16.106;2023-04-06T13:46:27;11.98;;;1.15;;
67100;SDS011;54019;61.746;16.106;2023-04-06T13:48:52;2.97;;;0.70;;
67100;SDS011;54019;61.746;16.106;2023-04-06T13:51:20;2.70;;;0.50;;
67100;SDS011;54019;61.746;16.106;2023-04-06T13:53:45;3.63;;;0.70;;
67100;SDS011;54019;61.746;16.106;2023-04-06T13:56:11;1.17;;;0.60;;
67100;SDS011;54019;61.746;16.106;2023-04-06T13:58:37;3.15;;;0.60;;
67100;SDS011;54019;61.746;16.106;2023-04-06T14:01:03;2.30;;;0.68;;
67100;SDS011;54019;61.746;16.106;2023-04-06T14:03:30;2.67;;;0.65;;
67100;SDS011;54019;61.746;16.106;2023-04-06T14:05:55;2.22;;;0.68;;
67100;SDS011;54019;61.746;16.106;2023-04-06T14:08:23;4.43;;;0.50;;
67100;SDS011;54019;61.746;16.106;2023-04-06T14:10:48;2.85;;;0.40;;
67100;SDS011;54019;61.746;16.106;2023-04-06T14:13:14;1.00;;;0.50;;
67100;SDS011;54019;61.746;16.106;2023-04-06T14:15:40;0.60;;;0.40;;
67100;SDS011;54019;61.746;16.106;2023-04-06T14:18:07;1.95;;;0.50;;
67100;SDS011;54019;61.746;16.106;2023-04-06T14:20:33;1.50;;;0.50;;
67100;SDS011;54019;61.746;16.106;2023-04-06T14:22:59;2.75;;;0.50;;
67100;SDS011;54019;61.746;16.106;2023-04-06T14:25:27;4.13;;;0.40;;
67100;SDS011;54019;61.746;16.106;2023-04-06T14:27:53;3.05;;;0.50;;